Map

Track Data

SID SEASON NUMBER BASIN SUBBASIN NAME ISO_TIME NATURE LAT LON WMO_WIND WMO_PRES WMO_AGENCY TRACK_TYPE DIST2LAND LANDFALL IFLAG USA_AGENCY USA_ATCF_ID USA_LAT USA_LON USA_RECORD USA_STATUS USA_WIND USA_PRES USA_SSHS USA_R34_NE USA_R34_SE USA_R34_SW USA_R34_NW USA_R50_NE USA_R50_SE USA_R50_SW USA_R50_NW USA_R64_NE USA_R64_SE USA_R64_SW USA_R64_NW USA_POCI USA_ROCI USA_RMW USA_EYE TOKYO_LAT TOKYO_LON TOKYO_GRADE TOKYO_WIND TOKYO_PRES TOKYO_R50_DIR TOKYO_R50_LONG TOKYO_R50_SHORT TOKYO_R30_DIR TOKYO_R30_LONG TOKYO_R30_SHORT TOKYO_LAND CMA_LAT CMA_LON CMA_CAT CMA_WIND CMA_PRES HKO_LAT HKO_LON HKO_CAT HKO_WIND HKO_PRES NEWDELHI_LAT NEWDELHI_LON NEWDELHI_GRADE NEWDELHI_WIND NEWDELHI_PRES NEWDELHI_CI NEWDELHI_DP NEWDELHI_POCI REUNION_LAT REUNION_LON REUNION_TYPE REUNION_WIND REUNION_PRES REUNION_TNUM REUNION_CI REUNION_RMW REUNION_R34_NE REUNION_R34_SE REUNION_R34_SW REUNION_R34_NW REUNION_R50_NE REUNION_R50_SE REUNION_R50_SW REUNION_R50_NW REUNION_R64_NE REUNION_R64_SE REUNION_R64_SW REUNION_R64_NW BOM_LAT BOM_LON BOM_TYPE BOM_WIND BOM_PRES BOM_TNUM BOM_CI BOM_RMW BOM_R34_NE BOM_R34_SE BOM_R34_SW BOM_R34_NW BOM_R50_NE BOM_R50_SE BOM_R50_SW BOM_R50_NW BOM_R64_NE BOM_R64_SE BOM_R64_SW BOM_R64_NW BOM_ROCI BOM_POCI BOM_EYE BOM_POS_METHOD BOM_PRES_METHOD NADI_LAT NADI_LON NADI_CAT NADI_WIND NADI_PRES WELLINGTON_LAT WELLINGTON_LON WELLINGTON_WIND WELLINGTON_PRES DS824_LAT DS824_LON DS824_STAGE DS824_WIND DS824_PRES TD9636_LAT TD9636_LON TD9636_STAGE TD9636_WIND TD9636_PRES TD9635_LAT TD9635_LON TD9635_WIND TD9635_PRES TD9635_ROCI NEUMANN_LAT NEUMANN_LON NEUMANN_CLASS NEUMANN_WIND NEUMANN_PRES MLC_LAT MLC_LON MLC_CLASS MLC_WIND MLC_PRES USA_GUST BOM_GUST BOM_GUST_PER REUNION_GUST REUNION_GUST_PER USA_SEAHGT USA_SEARAD_NE USA_SEARAD_SE USA_SEARAD_SW USA_SEARAD_NW STORM_SPEED STORM_DIR
1934244N29288 1934 48 NA NA NOT_NAMED 1934-09-01 00:00:00 ET 28.8000 -72.0000 35 hurdat_atl main 723 723 O_____________ hurdat_atl AL061934 28.8000 -72.0000 EX 35 -4 8 41
1934244N29288 1934 48 NA NA NOT_NAMED 1934-09-01 03:00:00 ET 29.0927 -71.7129 main 766 755 P_____________ AL061934 29.0927 -71.7129 EX 35 -4 7 36
1934244N29288 1934 48 NA NA NOT_NAMED 1934-09-01 06:00:00 TS 29.4000 -71.5000 35 hurdat_atl main 755 734 O_____________ hurdat_atl AL061934 29.4000 -71.5000 TS 35 0 7 22
1934244N29288 1934 48 NA NA NOT_NAMED 1934-09-01 09:00:00 TS 29.7223 -71.4249 main 734 703 P_____________ AL061934 29.7223 -71.4249 TS 35 0 6 1
1934244N29288 1934 48 NA NA NOT_NAMED 1934-09-01 12:00:00 TS 30.0000 -71.5000 35 hurdat_atl main 703 673 O_____________ hurdat_atl AL061934 30.0000 -71.5000 TS 35 0 5 331
1934244N29288 1934 48 NA NA NOT_NAMED 1934-09-01 15:00:00 TS 30.1651 -71.7125 main 673 646 P_____________ AL061934 30.1651 -71.7125 TS 37 0 5 305
1934244N29288 1934 48 NA NA NOT_NAMED 1934-09-01 18:00:00 TS 30.3000 -72.0000 40 hurdat_atl main 646 617 O_____________ hurdat_atl AL061934 30.3000 -72.0000 TS 40 0 6 305
1934244N29288 1934 48 NA NA NOT_NAMED 1934-09-01 21:00:00 TS 30.4925 -72.2500 main 611 581 P_____________ AL061934 30.4925 -72.2500 TS 40 0 6 313
1934244N29288 1934 48 NA NA NOT_NAMED 1934-09-02 00:00:00 TS 30.7000 -72.5000 40 hurdat_atl main 581 552 O_____________ hurdat_atl AL061934 30.7000 -72.5000 TS 40 0 6 313
1934244N29288 1934 48 NA NA NOT_NAMED 1934-09-02 03:00:00 TS 30.8924 -72.7427 main 552 517 P_____________ AL061934 30.8924 -72.7427 TS 42 0 6 313
1934244N29288 1934 48 NA NA NOT_NAMED 1934-09-02 06:00:00 TS 31.1000 -73.0000 45 hurdat_atl main 517 482 O_____________ hurdat_atl AL061934 31.1000 -73.0000 TS 45 0 6 313
1934244N29288 1934 48 NA NA NOT_NAMED 1934-09-02 09:00:00 TS 31.3275 -73.2927 main 482 438 P_____________ AL061934 31.3275 -73.2927 TS 45 0 7 314
1934244N29288 1934 48 NA NA NOT_NAMED 1934-09-02 12:00:00 TS 31.6000 -73.6000 45 hurdat_atl main 438 394 O_____________ hurdat_atl AL061934 31.6000 -73.6000 TS 45 0 8 319
1934244N29288 1934 48 NA NA NOT_NAMED 1934-09-02 15:00:00 TS 31.9199 -73.9002 main 394 341 P_____________ AL061934 31.9199 -73.9002 TS 45 0 9 324
1934244N29288 1934 48 NA NA NOT_NAMED 1934-09-02 18:00:00 TS 32.3000 -74.2000 45 hurdat_atl main 341 289 O_____________ hurdat_atl AL061934 32.3000 -74.2000 TS 45 0 9 328
1934244N29288 1934 48 NA NA NOT_NAMED 1934-09-02 21:00:00 TS 32.7198 -74.4856 main 289 229 P_____________ AL061934 32.7198 -74.4856 TS 42 0 10 331
1934244N29288 1934 48 NA NA NOT_NAMED 1934-09-03 00:00:00 TS 33.2000 -74.8000 40 hurdat_atl main 229 163 O_____________ hurdat_atl AL061934 33.2000 -74.8000 TS 40 0 12 330
1934244N29288 1934 48 NA NA NOT_NAMED 1934-09-03 03:00:00 TS 33.7403 -75.1768 main 163 92 P_____________ AL061934 33.7403 -75.1768 TS 40 0 13 329
1934244N29288 1934 48 NA NA NOT_NAMED 1934-09-03 06:00:00 TS 34.3000 -75.6000 40 hurdat_atl main 92 29 O_____________ hurdat_atl AL061934 34.3000 -75.6000 TS 40 0 13 326
1934244N29288 1934 48 NA NA NOT_NAMED 1934-09-03 09:00:00 TS 34.8158 -76.0484 main 29 14 P_____________ AL061934 34.8158 -76.0484 TS 40 0 13 325
1934244N29288 1934 48 NA NA NOT_NAMED 1934-09-03 10:00:00 TS 35.0000 -76.2000 40 hurdat_atl main 14 0 O_____________ hurdat_atl AL061934 35.0000 -76.2000 L TS 40 0 14 328
1934244N29288 1934 48 NA NA NOT_NAMED 1934-09-03 12:00:00 TS 35.4000 -76.5000 35 hurdat_atl main 0 0 O_____________ hurdat_atl AL061934 35.4000 -76.5000 TS 35 0 14 334
1934244N29288 1934 48 NA NA NOT_NAMED 1934-09-03 15:00:00 TS 36.0318 -76.8226 main 0 0 P_____________ AL061934 36.0318 -76.8226 TS 32 -1 14 343
1934244N29288 1934 48 NA NA NOT_NAMED 1934-09-03 18:00:00 TS 36.7000 -77.0000 30 hurdat_atl main 0 0 O_____________ hurdat_atl AL061934 36.7000 -77.0000 TD 30 -1 14 351
1934244N29288 1934 48 NA NA NOT_NAMED 1934-09-03 21:00:00 TS 37.3774 -77.0954 main 0 0 P_____________ AL061934 37.3774 -77.0954 TD 30 -1 14 357
1934244N29288 1934 48 NA NA NOT_NAMED 1934-09-04 00:00:00 TS 38.1000 -77.1000 30 hurdat_atl main 0 0 O_____________ hurdat_atl AL061934 38.1000 -77.1000 TD 30 -1 15 0
1934244N29288 1934 48 NA NA NOT_NAMED 1934-09-04 03:00:00 TS 38.8825 -77.0602 main 0 0 P_____________ AL061934 38.8825 -77.0602 TD 27 -1 16 3
1934244N29288 1934 48 NA NA NOT_NAMED 1934-09-04 06:00:00 TS 39.7000 -77.0000 25 hurdat_atl main 0 O_____________ hurdat_atl AL061934 39.7000 -77.0000 TD 25 -1 16 3

About IBTrACS Database

This database is a web-friendly format of International Best Track Archive for Climate Stewardship (IBTrACS), a global best track data archive curated by NOAA dating back to 1842.

Updated: 2021-11-26